sensor_id;sensor_type;location;lat;lon;timestamp;P1;durP1;ratioP1;P2;durP2;ratioP2
70975;SDS011;58635;51.198;6.010;2023-03-31T00:01:10;5.60;;;1.48;;
70975;SDS011;58635;51.198;6.010;2023-03-31T00:03:35;6.45;;;1.60;;
70975;SDS011;58635;51.198;6.010;2023-03-31T00:06:02;5.07;;;1.70;;
70975;SDS011;58635;51.198;6.010;2023-03-31T00:08:30;6.07;;;1.80;;
70975;SDS011;58635;51.198;6.010;2023-03-31T00:11:00;7.47;;;1.67;;
70975;SDS011;58635;51.198;6.010;2023-03-31T00:13:27;5.95;;;1.38;;
70975;SDS011;58635;51.198;6.010;2023-03-31T00:16:00;5.25;;;1.50;;
70975;SDS011;58635;51.198;6.010;2023-03-31T00:18:28;5.80;;;1.63;;
70975;SDS011;58635;51.198;6.010;2023-03-31T00:20:58;8.10;;;1.80;;
70975;SDS011;58635;51.198;6.010;2023-03-31T00:23:31;5.97;;;1.63;;
70975;SDS011;58635;51.198;6.010;2023-03-31T00:25:56;4.35;;;1.50;;
70975;SDS011;58635;51.198;6.010;2023-03-31T00:28:22;5.90;;;1.48;;
70975;SDS011;58635;51.198;6.010;2023-03-31T00:30:48;10.55;;;1.70;;
70975;SDS011;58635;51.198;6.010;2023-03-31T00:33:13;4.30;;;1.30;;
70975;SDS011;58635;51.198;6.010;2023-03-31T00:35:39;5.25;;;1.58;;
70975;SDS011;58635;51.198;6.010;2023-03-31T00:38:04;6.05;;;1.50;;
70975;SDS011;58635;51.198;6.010;2023-03-31T00:40:33;7.43;;;1.83;;
70975;SDS011;58635;51.198;6.010;2023-03-31T00:42:58;4.43;;;1.55;;
70975;SDS011;58635;51.198;6.010;2023-03-31T00:45:26;5.35;;;1.50;;
70975;SDS011;58635;51.198;6.010;2023-03-31T00:50:29;5.43;;;1.40;;
70975;SDS011;58635;51.198;6.010;2023-03-31T00:53:00;7.53;;;1.88;;
70975;SDS011;58635;51.198;6.010;2023-03-31T00:55:34;7.57;;;1.75;;
70975;SDS011;58635;51.198;6.010;2023-03-31T00:58:06;7.18;;;1.77;;
70975;SDS011;58635;51.198;6.010;2023-03-31T01:00:33;6.45;;;1.63;;
70975;SDS011;58635;51.198;6.010;2023-03-31T01:03:00;6.55;;;1.90;;
70975;SDS011;58635;51.198;6.010;2023-03-31T01:05:35;7.63;;;2.03;;
70975;SDS011;58635;51.198;6.010;2023-03-31T01:08:06;6.30;;;1.63;;
70975;SDS011;58635;51.198;6.010;2023-03-31T01:10:32;7.53;;;1.65;;
70975;SDS011;58635;51.198;6.010;2023-03-31T01:15:32;6.15;;;1.70;;
70975;SDS011;58635;51.198;6.010;2023-03-31T01:17:57;6.68;;;1.48;;
70975;SDS011;58635;51.198;6.010;2023-03-31T01:40:10;9.82;;;2.10;;
70975;SDS011;58635;51.198;6.010;2023-03-31T01:48:24;10.18;;;2.13;;
70975;SDS011;58635;51.198;6.010;2023-03-31T01:51:02;12.55;;;2.40;;
70975;SDS011;58635;51.198;6.010;2023-03-31T01:56:31;10.07;;;2.42;;
70975;SDS011;58635;51.198;6.010;2023-03-31T01:59:02;9.68;;;2.42;;
70975;SDS011;58635;51.198;6.010;2023-03-31T02:01:48;11.77;;;2.63;;
70975;SDS011;58635;51.198;6.010;2023-03-31T02:04:45;12.43;;;3.10;;
70975;SDS011;58635;51.198;6.010;2023-03-31T02:07:16;13.07;;;2.33;;
70975;SDS011;58635;51.198;6.010;2023-03-31T02:09:54;9.93;;;2.00;;
70975;SDS011;58635;51.198;6.010;2023-03-31T02:12:24;11.32;;;2.53;;
70975;SDS011;58635;51.198;6.010;2023-03-31T02:14:52;13.43;;;2.85;;
70975;SDS011;58635;51.198;6.010;2023-03-31T02:17:21;9.00;;;2.45;;
70975;SDS011;58635;51.198;6.010;2023-03-31T02:19:57;11.20;;;2.15;;
70975;SDS011;58635;51.198;6.010;2023-03-31T02:22:26;8.82;;;2.03;;
70975;SDS011;58635;51.198;6.010;2023-03-31T02:24:55;12.15;;;2.58;;
70975;SDS011;58635;51.198;6.010;2023-03-31T02:27:30;10.48;;;2.30;;
70975;SDS011;58635;51.198;6.010;2023-03-31T02:29:59;10.85;;;2.30;;
70975;SDS011;58635;51.198;6.010;2023-03-31T02:34:51;10.38;;;2.38;;
70975;SDS011;58635;51.198;6.010;2023-03-31T02:37:16;9.45;;;2.17;;
70975;SDS011;58635;51.198;6.010;2023-03-31T02:39:42;10.73;;;3.30;;
70975;SDS011;58635;51.198;6.010;2023-03-31T02:42:10;8.88;;;2.13;;
70975;SDS011;58635;51.198;6.010;2023-03-31T02:44:36;11.57;;;2.47;;
70975;SDS011;58635;51.198;6.010;2023-03-31T02:47:03;11.35;;;2.10;;
70975;SDS011;58635;51.198;6.010;2023-03-31T02:49:31;9.15;;;2.08;;
70975;SDS011;58635;51.198;6.010;2023-03-31T02:55:14;9.07;;;1.77;;
70975;SDS011;58635;51.198;6.010;2023-03-31T03:06:17;6.63;;;1.50;;
70975;SDS011;58635;51.198;6.010;2023-03-31T03:15:16;9.00;;;1.67;;
70975;SDS011;58635;51.198;6.010;2023-03-31T03:17:48;10.07;;;2.40;;
70975;SDS011;58635;51.198;6.010;2023-03-31T03:20:15;6.88;;;1.77;;
70975;SDS011;58635;51.198;6.010;2023-03-31T03:22:43;8.07;;;1.63;;
70975;SDS011;58635;51.198;6.010;2023-03-31T03:25:10;7.95;;;1.83;;
70975;SDS011;58635;51.198;6.010;2023-03-31T03:27:37;7.55;;;1.90;;
70975;SDS011;58635;51.198;6.010;2023-03-31T03:30:04;10.38;;;1.80;;
70975;SDS011;58635;51.198;6.010;2023-03-31T03:32:31;7.70;;;1.60;;
70975;SDS011;58635;51.198;6.010;2023-03-31T03:34:58;7.93;;;1.92;;
70975;SDS011;58635;51.198;6.010;2023-03-31T03:37:24;5.93;;;1.63;;
70975;SDS011;58635;51.198;6.010;2023-03-31T03:39:49;8.10;;;1.58;;
70975;SDS011;58635;51.198;6.010;2023-03-31T03:42:15;7.03;;;1.58;;
70975;SDS011;58635;51.198;6.010;2023-03-31T03:44:40;7.13;;;1.80;;
70975;SDS011;58635;51.198;6.010;2023-03-31T03:47:06;8.27;;;2.00;;
70975;SDS011;58635;51.198;6.010;2023-03-31T03:49:32;7.65;;;1.67;;
70975;SDS011;58635;51.198;6.010;2023-03-31T03:51:57;8.30;;;2.10;;
70975;SDS011;58635;51.198;6.010;2023-03-31T03:54:22;6.85;;;1.25;;
70975;SDS011;58635;51.198;6.010;2023-03-31T03:56:48;7.45;;;1.45;;
70975;SDS011;58635;51.198;6.010;2023-03-31T03:59:13;7.85;;;1.40;;
70975;SDS011;58635;51.198;6.010;2023-03-31T04:01:39;5.00;;;1.48;;
70975;SDS011;58635;51.198;6.010;2023-03-31T04:04:05;5.60;;;1.35;;
70975;SDS011;58635;51.198;6.010;2023-03-31T04:06:30;6.30;;;1.30;;
70975;SDS011;58635;51.198;6.010;2023-03-31T04:08:56;5.78;;;1.17;;
70975;SDS011;58635;51.198;6.010;2023-03-31T04:11:21;6.60;;;1.35;;
70975;SDS011;58635;51.198;6.010;2023-03-31T04:13:47;5.43;;;1.45;;
70975;SDS011;58635;51.198;6.010;2023-03-31T04:16:13;4.78;;;1.42;;
70975;SDS011;58635;51.198;6.010;2023-03-31T04:18:38;4.35;;;1.20;;
70975;SDS011;58635;51.198;6.010;2023-03-31T04:21:09;5.78;;;1.58;;
70975;SDS011;58635;51.198;6.010;2023-03-31T04:23:39;5.85;;;1.25;;
70975;SDS011;58635;51.198;6.010;2023-03-31T04:26:15;4.85;;;1.30;;
70975;SDS011;58635;51.198;6.010;2023-03-31T04:28:42;4.65;;;1.20;;
70975;SDS011;58635;51.198;6.010;2023-03-31T04:31:11;5.40;;;1.30;;
70975;SDS011;58635;51.198;6.010;2023-03-31T04:33:40;5.18;;;1.40;;
70975;SDS011;58635;51.198;6.010;2023-03-31T04:36:06;4.32;;;1.08;;
70975;SDS011;58635;51.198;6.010;2023-03-31T04:38:45;2.60;;;0.98;;
70975;SDS011;58635;51.198;6.010;2023-03-31T04:41:12;5.18;;;1.00;;
70975;SDS011;58635;51.198;6.010;2023-03-31T04:43:38;4.70;;;1.30;;
70975;SDS011;58635;51.198;6.010;2023-03-31T04:46:03;3.85;;;0.90;;
70975;SDS011;58635;51.198;6.010;2023-03-31T04:48:29;5.18;;;1.30;;
70975;SDS011;58635;51.198;6.010;2023-03-31T04:50:54;3.85;;;0.90;;
70975;SDS011;58635;51.198;6.010;2023-03-31T04:53:20;3.30;;;1.10;;
70975;SDS011;58635;51.198;6.010;2023-03-31T04:55:47;5.15;;;0.98;;
70975;SDS011;58635;51.198;6.010;2023-03-31T04:58:13;5.63;;;1.05;;
70975;SDS011;58635;51.198;6.010;2023-03-31T05:00:38;3.85;;;1.10;;
70975;SDS011;58635;51.198;6.010;2023-03-31T05:03:03;5.43;;;1.35;;
70975;SDS011;58635;51.198;6.010;2023-03-31T05:05:29;6.10;;;1.38;;
70975;SDS011;58635;51.198;6.010;2023-03-31T05:07:54;4.00;;;1.10;;
70975;SDS011;58635;51.198;6.010;2023-03-31T05:10:20;5.10;;;0.95;;
70975;SDS011;58635;51.198;6.010;2023-03-31T05:12:45;4.30;;;0.93;;
70975;SDS011;58635;51.198;6.010;2023-03-31T05:15:11;3.72;;;1.15;;
70975;SDS011;58635;51.198;6.010;2023-03-31T05:17:36;5.40;;;1.05;;
70975;SDS011;58635;51.198;6.010;2023-03-31T05:20:02;3.78;;;1.10;;
70975;SDS011;58635;51.198;6.010;2023-03-31T05:22:32;6.10;;;1.20;;
70975;SDS011;58635;51.198;6.010;2023-03-31T05:24:59;4.32;;;1.17;;
70975;SDS011;58635;51.198;6.010;2023-03-31T05:27:24;4.95;;;1.02;;
70975;SDS011;58635;51.198;6.010;2023-03-31T05:29:50;5.15;;;1.02;;
70975;SDS011;58635;51.198;6.010;2023-03-31T05:32:15;4.68;;;1.10;;
70975;SDS011;58635;51.198;6.010;2023-03-31T05:34:41;3.45;;;1.00;;
70975;SDS011;58635;51.198;6.010;2023-03-31T05:37:07;6.10;;;1.20;;
70975;SDS011;58635;51.198;6.010;2023-03-31T05:39:33;3.13;;;1.10;;
70975;SDS011;58635;51.198;6.010;2023-03-31T05:41:58;7.40;;;1.25;;
70975;SDS011;58635;51.198;6.010;2023-03-31T05:44:24;4.25;;;1.27;;
70975;SDS011;58635;51.198;6.010;2023-03-31T05:46:51;4.80;;;1.20;;
70975;SDS011;58635;51.198;6.010;2023-03-31T05:49:17;6.65;;;2.15;;
70975;SDS011;58635;51.198;6.010;2023-03-31T05:51:42;6.07;;;1.27;;
70975;SDS011;58635;51.198;6.010;2023-03-31T05:54:08;4.63;;;1.70;;
70975;SDS011;58635;51.198;6.010;2023-03-31T05:56:33;4.85;;;1.45;;
70975;SDS011;58635;51.198;6.010;2023-03-31T05:58:59;4.20;;;1.02;;
70975;SDS011;58635;51.198;6.010;2023-03-31T06:01:25;7.40;;;1.50;;
70975;SDS011;58635;51.198;6.010;2023-03-31T06:03:51;5.38;;;1.45;;
70975;SDS011;58635;51.198;6.010;2023-03-31T06:06:16;5.95;;;1.30;;
70975;SDS011;58635;51.198;6.010;2023-03-31T06:08:42;4.25;;;1.20;;
70975;SDS011;58635;51.198;6.010;2023-03-31T06:11:10;3.42;;;1.10;;
70975;SDS011;58635;51.198;6.010;2023-03-31T06:13:37;3.00;;;1.20;;
70975;SDS011;58635;51.198;6.010;2023-03-31T06:16:04;3.70;;;1.17;;
70975;SDS011;58635;51.198;6.010;2023-03-31T06:18:30;5.88;;;2.13;;
70975;SDS011;58635;51.198;6.010;2023-03-31T06:20:57;4.97;;;1.60;;
70975;SDS011;58635;51.198;6.010;2023-03-31T06:23:24;4.68;;;1.20;;
70975;SDS011;58635;51.198;6.010;2023-03-31T06:25:50;4.85;;;1.10;;
70975;SDS011;58635;51.198;6.010;2023-03-31T06:28:16;4.38;;;1.20;;
70975;SDS011;58635;51.198;6.010;2023-03-31T06:30:41;4.53;;;1.25;;
70975;SDS011;58635;51.198;6.010;2023-03-31T06:33:07;4.85;;;1.20;;
70975;SDS011;58635;51.198;6.010;2023-03-31T06:35:36;6.40;;;1.48;;
70975;SDS011;58635;51.198;6.010;2023-03-31T06:38:02;7.60;;;2.13;;
70975;SDS011;58635;51.198;6.010;2023-03-31T06:40:27;5.72;;;1.60;;
70975;SDS011;58635;51.198;6.010;2023-03-31T06:42:53;5.95;;;1.40;;
70975;SDS011;58635;51.198;6.010;2023-03-31T06:45:19;6.82;;;1.15;;
70975;SDS011;58635;51.198;6.010;2023-03-31T06:47:45;6.32;;;1.83;;
70975;SDS011;58635;51.198;6.010;2023-03-31T06:50:10;6.88;;;1.60;;
70975;SDS011;58635;51.198;6.010;2023-03-31T06:52:36;5.75;;;2.00;;
70975;SDS011;58635;51.198;6.010;2023-03-31T06:55:02;5.53;;;1.23;;
70975;SDS011;58635;51.198;6.010;2023-03-31T06:57:28;2.80;;;1.05;;
70975;SDS011;58635;51.198;6.010;2023-03-31T06:59:57;6.25;;;1.42;;
70975;SDS011;58635;51.198;6.010;2023-03-31T07:02:22;5.07;;;1.25;;
70975;SDS011;58635;51.198;6.010;2023-03-31T07:04:48;7.30;;;1.50;;
70975;SDS011;58635;51.198;6.010;2023-03-31T07:07:13;5.10;;;1.65;;
70975;SDS011;58635;51.198;6.010;2023-03-31T07:09:38;6.45;;;1.75;;
70975;SDS011;58635;51.198;6.010;2023-03-31T07:12:04;5.60;;;1.40;;
70975;SDS011;58635;51.198;6.010;2023-03-31T07:14:32;7.88;;;1.73;;
70975;SDS011;58635;51.198;6.010;2023-03-31T07:16:58;3.50;;;1.25;;
70975;SDS011;58635;51.198;6.010;2023-03-31T07:19:24;6.10;;;1.27;;
70975;SDS011;58635;51.198;6.010;2023-03-31T07:21:49;3.90;;;1.10;;
70975;SDS011;58635;51.198;6.010;2023-03-31T07:24:15;7.40;;;1.40;;
70975;SDS011;58635;51.198;6.010;2023-03-31T07:26:41;8.05;;;1.75;;
70975;SDS011;58635;51.198;6.010;2023-03-31T07:29:07;7.40;;;1.58;;
70975;SDS011;58635;51.198;6.010;2023-03-31T07:31:32;6.75;;;1.80;;
70975;SDS011;58635;51.198;6.010;2023-03-31T07:33:58;5.38;;;2.38;;
70975;SDS011;58635;51.198;6.010;2023-03-31T07:36:23;3.58;;;1.30;;
70975;SDS011;58635;51.198;6.010;2023-03-31T07:38:48;8.43;;;1.40;;
70975;SDS011;58635;51.198;6.010;2023-03-31T07:41:15;6.65;;;2.10;;
70975;SDS011;58635;51.198;6.010;2023-03-31T07:43:42;7.68;;;1.75;;
70975;SDS011;58635;51.198;6.010;2023-03-31T07:46:18;6.32;;;1.48;;
70975;SDS011;58635;51.198;6.010;2023-03-31T07:48:46;6.40;;;1.90;;
70975;SDS011;58635;51.198;6.010;2023-03-31T07:51:14;5.70;;;1.63;;
70975;SDS011;58635;51.198;6.010;2023-03-31T07:53:40;5.57;;;1.52;;
70975;SDS011;58635;51.198;6.010;2023-03-31T07:56:06;7.13;;;1.63;;
70975;SDS011;58635;51.198;6.010;2023-03-31T07:58:31;10.00;;;2.08;;
70975;SDS011;58635;51.198;6.010;2023-03-31T08:00:56;6.53;;;1.58;;
70975;SDS011;58635;51.198;6.010;2023-03-31T08:03:22;7.95;;;2.00;;
70975;SDS011;58635;51.198;6.010;2023-03-31T08:05:50;7.05;;;1.75;;
70975;SDS011;58635;51.198;6.010;2023-03-31T08:08:16;11.10;;;1.98;;
70975;SDS011;58635;51.198;6.010;2023-03-31T08:10:41;12.63;;;2.50;;
70975;SDS011;58635;51.198;6.010;2023-03-31T08:13:07;12.20;;;2.30;;
70975;SDS011;58635;51.198;6.010;2023-03-31T08:15:32;8.98;;;1.95;;
70975;SDS011;58635;51.198;6.010;2023-03-31T08:17:57;11.55;;;3.08;;
70975;SDS011;58635;51.198;6.010;2023-03-31T08:20:23;13.10;;;3.35;;
70975;SDS011;58635;51.198;6.010;2023-03-31T08:22:48;8.15;;;2.03;;
70975;SDS011;58635;51.198;6.010;2023-03-31T08:25:14;9.70;;;2.28;;
70975;SDS011;58635;51.198;6.010;2023-03-31T08:27:40;11.48;;;2.00;;
70975;SDS011;58635;51.198;6.010;2023-03-31T08:30:06;12.95;;;2.22;;
70975;SDS011;58635;51.198;6.010;2023-03-31T08:32:34;7.90;;;2.30;;
70975;SDS011;58635;51.198;6.010;2023-03-31T08:35:00;8.00;;;2.20;;
70975;SDS011;58635;51.198;6.010;2023-03-31T08:37:25;12.05;;;3.10;;
70975;SDS011;58635;51.198;6.010;2023-03-31T08:39:54;8.35;;;2.00;;
70975;SDS011;58635;51.198;6.010;2023-03-31T08:47:51;11.43;;;2.33;;
70975;SDS011;58635;51.198;6.010;2023-03-31T08:50:25;9.90;;;2.53;;
70975;SDS011;58635;51.198;6.010;2023-03-31T08:55:27;9.85;;;2.15;;
70975;SDS011;58635;51.198;6.010;2023-03-31T08:57:59;13.60;;;2.73;;
70975;SDS011;58635;51.198;6.010;2023-03-31T09:06:37;9.52;;;2.22;;
70975;SDS011;58635;51.198;6.010;2023-03-31T09:09:09;14.05;;;2.67;;
70975;SDS011;58635;51.198;6.010;2023-03-31T09:11:43;10.90;;;2.65;;
70975;SDS011;58635;51.198;6.010;2023-03-31T09:19:40;13.27;;;2.80;;
70975;SDS011;58635;51.198;6.010;2023-03-31T09:22:14;13.50;;;2.55;;
70975;SDS011;58635;51.198;6.010;2023-03-31T09:25:00;14.38;;;2.42;;
70975;SDS011;58635;51.198;6.010;2023-03-31T09:27:30;16.52;;;2.75;;
70975;SDS011;58635;51.198;6.010;2023-03-31T09:32:51;9.23;;;2.40;;
70975;SDS011;58635;51.198;6.010;2023-03-31T09:35:23;12.68;;;2.80;;
70975;SDS011;58635;51.198;6.010;2023-03-31T09:37:51;14.13;;;2.80;;
70975;SDS011;58635;51.198;6.010;2023-03-31T09:40:18;11.57;;;2.50;;
70975;SDS011;58635;51.198;6.010;2023-03-31T09:42:50;14.40;;;3.15;;
70975;SDS011;58635;51.198;6.010;2023-03-31T09:45:25;10.93;;;2.78;;
70975;SDS011;58635;51.198;6.010;2023-03-31T09:47:55;13.77;;;2.95;;
70975;SDS011;58635;51.198;6.010;2023-03-31T09:50:23;12.70;;;2.85;;
70975;SDS011;58635;51.198;6.010;2023-03-31T09:52:57;13.65;;;2.60;;
70975;SDS011;58635;51.198;6.010;2023-03-31T09:56:07;11.15;;;2.20;;
70975;SDS011;58635;51.198;6.010;2023-03-31T09:58:22;12.45;;;2.20;;
70975;SDS011;58635;51.198;6.010;2023-03-31T10:03:50;11.05;;;2.45;;
70975;SDS011;58635;51.198;6.010;2023-03-31T10:06:18;10.02;;;2.28;;
70975;SDS011;58635;51.198;6.010;2023-03-31T10:09:17;11.13;;;3.30;;
70975;SDS011;58635;51.198;6.010;2023-03-31T10:11:36;10.13;;;1.90;;
70975;SDS011;58635;51.198;6.010;2023-03-31T10:16:30;5.40;;;1.42;;
70975;SDS011;58635;51.198;6.010;2023-03-31T10:21:44;9.75;;;2.40;;
70975;SDS011;58635;51.198;6.010;2023-03-31T10:24:15;9.23;;;2.35;;
70975;SDS011;58635;51.198;6.010;2023-03-31T10:26:45;7.85;;;1.88;;
70975;SDS011;58635;51.198;6.010;2023-03-31T10:29:14;9.15;;;1.77;;
70975;SDS011;58635;51.198;6.010;2023-03-31T10:31:50;7.65;;;2.00;;
70975;SDS011;58635;51.198;6.010;2023-03-31T10:34:16;5.28;;;1.38;;
70975;SDS011;58635;51.198;6.010;2023-03-31T10:36:47;5.90;;;1.40;;
70975;SDS011;58635;51.198;6.010;2023-03-31T10:39:15;5.65;;;1.48;;
70975;SDS011;58635;51.198;6.010;2023-03-31T10:41:41;7.22;;;1.73;;
70975;SDS011;58635;51.198;6.010;2023-03-31T10:46:56;6.00;;;1.58;;
70975;SDS011;58635;51.198;6.010;2023-03-31T10:49:42;6.85;;;2.80;;
70975;SDS011;58635;51.198;6.010;2023-03-31T10:52:22;6.78;;;2.00;;
70975;SDS011;58635;51.198;6.010;2023-03-31T10:54:57;6.82;;;1.52;;
70975;SDS011;58635;51.198;6.010;2023-03-31T11:00:16;8.13;;;1.60;;
70975;SDS011;58635;51.198;6.010;2023-03-31T11:08:19;8.85;;;2.00;;
70975;SDS011;58635;51.198;6.010;2023-03-31T11:11:12;10.80;;;2.22;;
70975;SDS011;58635;51.198;6.010;2023-03-31T11:14:07;9.63;;;1.80;;
70975;SDS011;58635;51.198;6.010;2023-03-31T11:27:48;10.02;;;2.13;;
70975;SDS011;58635;51.198;6.010;2023-03-31T11:30:27;9.40;;;2.05;;
70975;SDS011;58635;51.198;6.010;2023-03-31T11:38:27;12.70;;;3.72;;
70975;SDS011;58635;51.198;6.010;2023-03-31T11:41:16;9.45;;;2.50;;
70975;SDS011;58635;51.198;6.010;2023-03-31T11:43:49;11.45;;;2.63;;
70975;SDS011;58635;51.198;6.010;2023-03-31T11:48:52;11.18;;;2.28;;
70975;SDS011;58635;51.198;6.010;2023-03-31T11:56:50;11.65;;;2.20;;
70975;SDS011;58635;51.198;6.010;2023-03-31T11:59:17;8.90;;;2.13;;
70975;SDS011;58635;51.198;6.010;2023-03-31T12:06:53;10.02;;;2.40;;
70975;SDS011;58635;51.198;6.010;2023-03-31T12:09:36;11.88;;;2.35;;
70975;SDS011;58635;51.198;6.010;2023-03-31T12:12:14;14.38;;;2.53;;
70975;SDS011;58635;51.198;6.010;2023-03-31T12:14:53;12.60;;;3.40;;
70975;SDS011;58635;51.198;6.010;2023-03-31T12:17:27;9.45;;;2.38;;
70975;SDS011;58635;51.198;6.010;2023-03-31T12:22:38;10.00;;;1.98;;
70975;SDS011;58635;51.198;6.010;2023-03-31T12:25:11;8.55;;;2.10;;
70975;SDS011;58635;51.198;6.010;2023-03-31T12:27:39;6.80;;;1.48;;
70975;SDS011;58635;51.198;6.010;2023-03-31T12:32:52;8.27;;;2.20;;
70975;SDS011;58635;51.198;6.010;2023-03-31T12:38:16;6.75;;;1.63;;
70975;SDS011;58635;51.198;6.010;2023-03-31T12:52:56;6.03;;;1.90;;
70975;SDS011;58635;51.198;6.010;2023-03-31T12:55:20;5.53;;;1.48;;
70975;SDS011;58635;51.198;6.010;2023-03-31T13:11:21;6.93;;;1.80;;
70975;SDS011;58635;51.198;6.010;2023-03-31T13:16:31;6.40;;;1.55;;
70975;SDS011;58635;51.198;6.010;2023-03-31T13:18:59;8.23;;;1.65;;
70975;SDS011;58635;51.198;6.010;2023-03-31T13:21:25;5.35;;;1.40;;
70975;SDS011;58635;51.198;6.010;2023-03-31T13:23:51;8.35;;;1.88;;
70975;SDS011;58635;51.198;6.010;2023-03-31T13:26:34;5.97;;;1.80;;
70975;SDS011;58635;51.198;6.010;2023-03-31T13:34:26;4.97;;;1.25;;
70975;SDS011;58635;51.198;6.010;2023-03-31T13:37:03;5.90;;;1.60;;
70975;SDS011;58635;51.198;6.010;2023-03-31T13:53:28;7.35;;;1.83;;
70975;SDS011;58635;51.198;6.010;2023-03-31T14:07:00;7.32;;;1.52;;
70975;SDS011;58635;51.198;6.010;2023-03-31T14:09:30;6.53;;;1.42;;
70975;SDS011;58635;51.198;6.010;2023-03-31T14:11:58;8.75;;;1.77;;
70975;SDS011;58635;51.198;6.010;2023-03-31T14:14:24;9.18;;;1.92;;
70975;SDS011;58635;51.198;6.010;2023-03-31T14:16:52;8.15;;;1.95;;
70975;SDS011;58635;51.198;6.010;2023-03-31T14:25:18;8.77;;;1.88;;
70975;SDS011;58635;51.198;6.010;2023-03-31T14:27:59;8.23;;;1.70;;
70975;SDS011;58635;51.198;6.010;2023-03-31T14:33:39;6.63;;;1.80;;
70975;SDS011;58635;51.198;6.010;2023-03-31T14:39:12;7.68;;;1.83;;
70975;SDS011;58635;51.198;6.010;2023-03-31T14:41:43;5.28;;;1.25;;
70975;SDS011;58635;51.198;6.010;2023-03-31T14:44:13;5.97;;;1.58;;
70975;SDS011;58635;51.198;6.010;2023-03-31T14:46:40;6.68;;;1.60;;
70975;SDS011;58635;51.198;6.010;2023-03-31T14:49:13;8.43;;;1.60;;
70975;SDS011;58635;51.198;6.010;2023-03-31T14:51:44;6.25;;;1.20;;
70975;SDS011;58635;51.198;6.010;2023-03-31T14:54:14;6.30;;;1.60;;
70975;SDS011;58635;51.198;6.010;2023-03-31T14:56:42;5.18;;;1.48;;
70975;SDS011;58635;51.198;6.010;2023-03-31T14:59:12;9.07;;;1.67;;
70975;SDS011;58635;51.198;6.010;2023-03-31T15:01:42;4.68;;;1.35;;
70975;SDS011;58635;51.198;6.010;2023-03-31T15:04:12;6.93;;;1.60;;
70975;SDS011;58635;51.198;6.010;2023-03-31T15:06:42;5.30;;;1.38;;
70975;SDS011;58635;51.198;6.010;2023-03-31T15:09:11;3.35;;;1.58;;
70975;SDS011;58635;51.198;6.010;2023-03-31T15:11:46;4.93;;;1.45;;
70975;SDS011;58635;51.198;6.010;2023-03-31T15:14:17;3.97;;;1.20;;
70975;SDS011;58635;51.198;6.010;2023-03-31T15:16:43;3.33;;;1.17;;
70975;SDS011;58635;51.198;6.010;2023-03-31T15:19:16;4.82;;;1.35;;
70975;SDS011;58635;51.198;6.010;2023-03-31T15:22:20;4.53;;;1.23;;
70975;SDS011;58635;51.198;6.010;2023-03-31T15:24:40;2.75;;;1.00;;
70975;SDS011;58635;51.198;6.010;2023-03-31T15:27:17;3.15;;;1.00;;
70975;SDS011;58635;51.198;6.010;2023-03-31T15:29:57;5.53;;;1.30;;
70975;SDS011;58635;51.198;6.010;2023-03-31T15:32:27;4.60;;;1.55;;
70975;SDS011;58635;51.198;6.010;2023-03-31T15:34:55;5.00;;;1.60;;
70975;SDS011;58635;51.198;6.010;2023-03-31T15:37:26;4.72;;;1.13;;
70975;SDS011;58635;51.198;6.010;2023-03-31T15:39:56;2.10;;;0.65;;
70975;SDS011;58635;51.198;6.010;2023-03-31T15:42:23;3.55;;;1.10;;
70975;SDS011;58635;51.198;6.010;2023-03-31T15:44:53;3.92;;;1.20;;
70975;SDS011;58635;51.198;6.010;2023-03-31T15:47:23;4.38;;;0.95;;
70975;SDS011;58635;51.198;6.010;2023-03-31T15:49:54;3.45;;;0.90;;
70975;SDS011;58635;51.198;6.010;2023-03-31T15:52:37;3.15;;;0.90;;
70975;SDS011;58635;51.198;6.010;2023-03-31T15:55:43;1.88;;;1.05;;
70975;SDS011;58635;51.198;6.010;2023-03-31T15:58:07;2.95;;;1.05;;
70975;SDS011;58635;51.198;6.010;2023-03-31T16:00:40;4.25;;;1.00;;
70975;SDS011;58635;51.198;6.010;2023-03-31T16:03:23;2.45;;;0.75;;
70975;SDS011;58635;51.198;6.010;2023-03-31T16:05:56;4.47;;;1.20;;
70975;SDS011;58635;51.198;6.010;2023-03-31T16:08:47;3.07;;;0.70;;
70975;SDS011;58635;51.198;6.010;2023-03-31T16:11:36;3.08;;;0.90;;
70975;SDS011;58635;51.198;6.010;2023-03-31T16:14:15;2.28;;;0.90;;
70975;SDS011;58635;51.198;6.010;2023-03-31T16:17:03;2.50;;;0.80;;
70975;SDS011;58635;51.198;6.010;2023-03-31T16:20:16;3.20;;;0.98;;
70975;SDS011;58635;51.198;6.010;2023-03-31T16:22:28;3.08;;;1.00;;
70975;SDS011;58635;51.198;6.010;2023-03-31T16:25:01;3.83;;;0.90;;
70975;SDS011;58635;51.198;6.010;2023-03-31T16:27:35;3.90;;;1.02;;
70975;SDS011;58635;51.198;6.010;2023-03-31T16:30:07;2.63;;;0.90;;
70975;SDS011;58635;51.198;6.010;2023-03-31T16:32:36;4.72;;;1.20;;
70975;SDS011;58635;51.198;6.010;2023-03-31T16:35:03;3.00;;;1.00;;
70975;SDS011;58635;51.198;6.010;2023-03-31T16:37:29;4.28;;;1.42;;
70975;SDS011;58635;51.198;6.010;2023-03-31T16:39:54;5.85;;;1.50;;
70975;SDS011;58635;51.198;6.010;2023-03-31T16:42:22;3.15;;;1.25;;
70975;SDS011;58635;51.198;6.010;2023-03-31T16:44:47;3.60;;;0.88;;
70975;SDS011;58635;51.198;6.010;2023-03-31T16:47:13;3.03;;;1.00;;
70975;SDS011;58635;51.198;6.010;2023-03-31T16:49:39;2.10;;;0.90;;
70975;SDS011;58635;51.198;6.010;2023-03-31T16:52:05;4.10;;;0.95;;
70975;SDS011;58635;51.198;6.010;2023-03-31T16:54:30;6.05;;;1.60;;
70975;SDS011;58635;51.198;6.010;2023-03-31T16:56:56;4.10;;;1.27;;
70975;SDS011;58635;51.198;6.010;2023-03-31T16:59:22;6.20;;;2.00;;
70975;SDS011;58635;51.198;6.010;2023-03-31T17:01:48;2.85;;;1.05;;
70975;SDS011;58635;51.198;6.010;2023-03-31T17:04:15;2.13;;;0.80;;
70975;SDS011;58635;51.198;6.010;2023-03-31T17:06:40;3.92;;;0.93;;
70975;SDS011;58635;51.198;6.010;2023-03-31T17:09:06;3.83;;;0.95;;
70975;SDS011;58635;51.198;6.010;2023-03-31T17:11:31;4.63;;;1.00;;
70975;SDS011;58635;51.198;6.010;2023-03-31T17:13:57;3.30;;;0.77;;
70975;SDS011;58635;51.198;6.010;2023-03-31T17:16:24;2.20;;;1.13;;
70975;SDS011;58635;51.198;6.010;2023-03-31T17:18:50;3.50;;;0.88;;
70975;SDS011;58635;51.198;6.010;2023-03-31T17:21:17;4.43;;;1.10;;
70975;SDS011;58635;51.198;6.010;2023-03-31T17:23:43;5.03;;;1.20;;
70975;SDS011;58635;51.198;6.010;2023-03-31T17:26:09;4.63;;;1.38;;
70975;SDS011;58635;51.198;6.010;2023-03-31T17:28:36;4.95;;;1.30;;
70975;SDS011;58635;51.198;6.010;2023-03-31T17:31:09;3.80;;;1.13;;
70975;SDS011;58635;51.198;6.010;2023-03-31T17:33:37;4.85;;;1.10;;
70975;SDS011;58635;51.198;6.010;2023-03-31T17:36:02;5.53;;;1.35;;
70975;SDS011;58635;51.198;6.010;2023-03-31T17:38:28;4.00;;;1.23;;
70975;SDS011;58635;51.198;6.010;2023-03-31T17:40:54;3.63;;;1.10;;
70975;SDS011;58635;51.198;6.010;2023-03-31T17:43:19;4.18;;;1.17;;
70975;SDS011;58635;51.198;6.010;2023-03-31T17:45:45;6.55;;;1.23;;
70975;SDS011;58635;51.198;6.010;2023-03-31T17:48:11;5.90;;;1.23;;
70975;SDS011;58635;51.198;6.010;2023-03-31T17:50:37;6.30;;;1.63;;
70975;SDS011;58635;51.198;6.010;2023-03-31T17:53:02;4.45;;;1.35;;
70975;SDS011;58635;51.198;6.010;2023-03-31T17:55:33;4.63;;;1.30;;
70975;SDS011;58635;51.198;6.010;2023-03-31T17:58:00;5.72;;;1.30;;
70975;SDS011;58635;51.198;6.010;2023-03-31T18:00:25;6.43;;;1.33;;
70975;SDS011;58635;51.198;6.010;2023-03-31T18:02:51;5.13;;;1.27;;
70975;SDS011;58635;51.198;6.010;2023-03-31T18:05:16;4.90;;;1.20;;
70975;SDS011;58635;51.198;6.010;2023-03-31T18:07:41;3.45;;;0.95;;
70975;SDS011;58635;51.198;6.010;2023-03-31T18:10:07;5.05;;;1.45;;
70975;SDS011;58635;51.198;6.010;2023-03-31T18:12:34;3.45;;;1.00;;
70975;SDS011;58635;51.198;6.010;2023-03-31T18:15:00;3.92;;;1.10;;
70975;SDS011;58635;51.198;6.010;2023-03-31T18:17:28;5.65;;;1.00;;
70975;SDS011;58635;51.198;6.010;2023-03-31T18:19:53;7.05;;;1.17;;
70975;SDS011;58635;51.198;6.010;2023-03-31T18:22:19;5.38;;;2.17;;